createdAt,value
2023-05-18T00:00:19.665Z,16
2023-05-18T00:05:19.563Z,16
2023-05-18T00:10:16.570Z,17
2023-05-18T00:15:16.526Z,15
2023-05-18T00:20:19.546Z,16
2023-05-18T00:25:19.604Z,16
2023-05-18T00:30:19.534Z,19
2023-05-18T00:35:19.547Z,17
2023-05-18T00:40:19.629Z,13
2023-05-18T00:45:19.496Z,17
2023-05-18T00:50:19.541Z,14
2023-05-18T00:55:19.515Z,17
2023-05-18T01:00:19.544Z,13
2023-05-18T01:05:16.619Z,14
2023-05-18T01:10:19.999Z,9
2023-05-18T01:15:19.586Z,8
2023-05-18T01:20:19.536Z,10
2023-05-18T01:25:19.558Z,13
2023-05-18T01:30:19.591Z,13
2023-05-18T01:35:19.602Z,12
2023-05-18T01:40:16.447Z,12
2023-05-18T01:45:16.649Z,10
2023-05-18T01:50:16.654Z,8
2023-05-18T01:55:16.661Z,10
2023-05-18T02:00:16.578Z,9
2023-05-18T02:05:16.421Z,7
2023-05-18T02:10:16.385Z,0
2023-05-18T02:15:19.573Z,0
2023-05-18T02:20:19.536Z,0
2023-05-18T02:25:19.563Z,0
2023-05-18T02:30:19.653Z,0
2023-05-18T02:35:16.652Z,0
2023-05-18T02:40:19.653Z,0
2023-05-18T02:45:19.610Z,0
2023-05-18T02:50:19.619Z,0
2023-05-18T02:55:19.617Z,0
2023-05-18T03:00:16.406Z,0
2023-05-18T03:05:16.680Z,0
2023-05-18T03:10:19.687Z,0
2023-05-18T03:15:19.642Z,0
2023-05-18T03:20:19.605Z,0
2023-05-18T03:25:19.659Z,0
2023-05-18T03:30:16.642Z,0
2023-05-18T03:35:16.532Z,0
2023-05-18T03:40:19.654Z,0
2023-05-18T03:45:19.641Z,0
2023-05-18T03:50:19.655Z,0
2023-05-18T03:55:16.664Z,0
2023-05-18T04:00:15.960Z,0
2023-05-18T04:05:15.930Z,0
2023-05-18T04:10:15.898Z,0
2023-05-18T04:15:18.898Z,0
2023-05-18T04:20:18.948Z,0
2023-05-18T04:25:15.706Z,0
2023-05-18T04:30:19.139Z,0
2023-05-18T04:35:18.892Z,0
2023-05-18T04:40:15.973Z,0
2023-05-18T04:45:15.964Z,0
2023-05-18T04:50:18.998Z,0
2023-05-18T04:55:18.985Z,0
2023-05-18T05:00:15.807Z,0
2023-05-18T05:05:18.952Z,0
2023-05-18T05:10:18.960Z,0
2023-05-18T05:15:15.925Z,0
2023-05-18T05:20:16.032Z,0
2023-05-18T05:25:18.939Z,0
2023-05-18T05:30:18.940Z,0
2023-05-18T05:35:18.901Z,0
2023-05-18T05:40:18.940Z,0
2023-05-18T05:45:18.921Z,0
2023-05-18T05:50:15.777Z,0
2023-05-18T05:55:15.941Z,0
2023-05-18T06:00:15.997Z,0
2023-05-18T06:05:15.943Z,0
2023-05-18T06:10:15.991Z,0
2023-05-18T06:15:18.963Z,0
2023-05-18T06:20:18.903Z,0
2023-05-18T06:25:15.790Z,0
2023-05-18T06:30:18.966Z,0
2023-05-18T06:35:18.940Z,0
2023-05-18T06:40:18.921Z,0
2023-05-18T06:45:19.047Z,5
2023-05-18T06:50:16.105Z,3
2023-05-18T06:55:15.981Z,2
2023-05-18T07:00:16.057Z,4
2023-05-18T07:05:18.943Z,3
2023-05-18T07:10:18.933Z,3
2023-05-18T07:15:19.002Z,3
2023-05-18T07:20:18.937Z,3
2023-05-18T07:25:18.953Z,2
2023-05-18T07:30:19.026Z,3
2023-05-18T07:35:18.998Z,3
2023-05-18T07:40:15.977Z,4
2023-05-18T07:45:19.002Z,3
2023-05-18T07:50:16.005Z,1
2023-05-18T07:55:15.983Z,2
2023-05-18T08:00:16.005Z,2
2023-05-18T08:05:16.048Z,2
2023-05-18T08:10:18.975Z,4
2023-05-18T08:15:18.994Z,3
2023-05-18T08:20:18.974Z,3
2023-05-18T08:25:19.035Z,1
2023-05-18T08:30:19.002Z,1
2023-05-18T08:35:19.010Z,2
2023-05-18T08:40:18.964Z,3
2023-05-18T08:45:18.989Z,2
2023-05-18T08:50:19.011Z,1
2023-05-18T08:55:19.002Z,2
2023-05-18T09:00:19.003Z,2
2023-05-18T09:05:15.998Z,2
2023-05-18T09:10:19.065Z,1
2023-05-18T09:15:18.980Z,2
2023-05-18T09:20:18.977Z,2
2023-05-18T09:25:18.985Z,2
2023-05-18T09:30:19.002Z,1
2023-05-18T09:35:19.006Z,2
2023-05-18T09:40:16.012Z,4
2023-05-18T09:45:15.870Z,4
2023-05-18T09:50:16.035Z,3
2023-05-18T09:55:19.080Z,5
2023-05-18T10:00:19.171Z,3
2023-05-18T10:05:19.047Z,5
2023-05-18T10:10:16.131Z,5
2023-05-18T10:15:19.064Z,5
2023-05-18T10:20:19.105Z,2
2023-05-18T10:25:15.954Z,4
2023-05-18T10:30:19.108Z,4
2023-05-18T10:35:19.274Z,2
2023-05-18T10:40:19.085Z,5
2023-05-18T10:45:19.022Z,3
2023-05-18T10:50:19.027Z,3
2023-05-18T10:55:19.058Z,3
2023-05-18T11:00:19.030Z,4
2023-05-18T11:05:16.210Z,4
2023-05-18T11:10:16.207Z,4
2023-05-18T11:15:19.070Z,4
2023-05-18T11:20:19.067Z,4
2023-05-18T11:25:16.130Z,3
2023-05-18T11:30:19.118Z,4
2023-05-18T11:35:16.134Z,2
2023-05-18T11:40:19.319Z,4
2023-05-18T11:45:16.120Z,4
2023-05-18T11:50:19.069Z,4
2023-05-18T11:55:19.162Z,5
2023-05-18T12:00:19.050Z,5
2023-05-18T12:05:19.140Z,4
2023-05-18T12:10:19.064Z,4
2023-05-18T12:15:19.121Z,2
2023-05-18T12:20:16.070Z,5
2023-05-18T12:25:19.141Z,5
2023-05-18T12:30:19.110Z,4
2023-05-18T12:35:19.111Z,4
2023-05-18T12:40:19.101Z,8
2023-05-18T12:45:19.143Z,8
2023-05-18T12:50:16.134Z,8
2023-05-18T12:55:19.142Z,10
2023-05-18T13:00:15.989Z,5
2023-05-18T13:05:19.120Z,11
2023-05-18T13:10:19.095Z,9
2023-05-18T13:15:19.152Z,6
2023-05-18T13:20:16.152Z,7
2023-05-18T13:25:19.110Z,10
2023-05-18T13:30:17.954Z,7
2023-05-18T13:35:19.173Z,8
2023-05-18T13:40:19.130Z,6
2023-05-18T13:45:19.104Z,4
2023-05-18T13:50:19.147Z,6
2023-05-18T13:55:16.179Z,7
2023-05-18T14:00:19.454Z,5
2023-05-18T14:05:16.206Z,6
2023-05-18T14:10:16.174Z,7
2023-05-18T14:15:19.167Z,8
2023-05-18T14:20:19.137Z,11
2023-05-18T14:25:19.148Z,11
2023-05-18T14:30:16.202Z,9
2023-05-18T14:35:19.169Z,6
2023-05-18T14:40:19.136Z,6
2023-05-18T14:45:16.172Z,6
2023-05-18T14:50:19.200Z,8
2023-05-18T14:55:19.205Z,7
2023-05-18T15:00:19.170Z,6
2023-05-18T15:05:19.165Z,7
2023-05-18T15:10:19.183Z,6
2023-05-18T15:15:19.225Z,7
2023-05-18T15:20:19.225Z,6
2023-05-18T15:25:16.256Z,9
2023-05-18T15:30:19.250Z,8
2023-05-18T15:35:19.226Z,6
2023-05-18T15:40:16.192Z,8
2023-05-18T15:45:19.202Z,6
2023-05-18T15:50:16.223Z,5
2023-05-18T15:55:16.211Z,5
2023-05-18T16:00:19.366Z,9
2023-05-18T16:05:19.238Z,6
2023-05-18T16:10:19.220Z,10
2023-05-18T16:15:16.244Z,7
2023-05-18T16:20:19.212Z,5
2023-05-18T16:25:16.234Z,9
2023-05-18T16:30:16.292Z,10
2023-05-18T16:35:19.312Z,7
2023-05-18T16:40:19.215Z,6
2023-05-18T16:45:19.177Z,8
2023-05-18T16:50:19.184Z,7
2023-05-18T16:55:16.027Z,7
2023-05-18T17:00:19.276Z,7
2023-05-18T17:05:19.224Z,4
2023-05-18T17:10:16.245Z,5
2023-05-18T17:15:16.259Z,10
2023-05-18T17:20:16.257Z,6
2023-05-18T17:25:19.240Z,5
2023-05-18T17:30:16.243Z,9
2023-05-18T17:35:19.259Z,11
2023-05-18T17:40:19.197Z,9
2023-05-18T17:45:16.294Z,7
2023-05-18T17:50:19.262Z,7
2023-05-18T17:55:19.224Z,6
2023-05-18T18:00:19.229Z,6
2023-05-18T18:05:19.205Z,10
2023-05-18T18:10:16.298Z,7
2023-05-18T18:15:19.284Z,6
2023-05-18T18:20:19.257Z,7
2023-05-18T18:25:16.279Z,10
2023-05-18T18:30:16.286Z,8
2023-05-18T18:35:16.292Z,9
2023-05-18T18:40:19.236Z,9
2023-05-18T18:45:19.313Z,8
2023-05-18T18:50:16.202Z,7
2023-05-18T18:55:19.230Z,7
2023-05-18T19:00:16.338Z,11
2023-05-18T19:05:19.488Z,10
2023-05-18T19:10:19.264Z,7
2023-05-18T19:15:16.349Z,10
2023-05-18T19:20:19.312Z,9
2023-05-18T19:25:19.349Z,8
2023-05-18T19:30:16.128Z,6
2023-05-18T19:35:18.859Z,8
2023-05-18T19:40:19.309Z,5
2023-05-18T19:45:16.287Z,6
2023-05-18T19:50:19.343Z,7
2023-05-18T19:55:16.353Z,4
2023-05-18T20:00:19.310Z,10
2023-05-18T20:05:19.406Z,8
2023-05-18T20:10:19.247Z,10
2023-05-18T20:15:19.380Z,6
2023-05-18T20:20:19.249Z,6
2023-05-18T20:25:19.313Z,3
2023-05-18T20:30:19.274Z,7
2023-05-18T20:35:19.272Z,9
2023-05-18T20:40:19.411Z,9
2023-05-18T20:45:19.271Z,6
2023-05-18T20:50:19.353Z,8
2023-05-18T20:55:19.352Z,9
2023-05-18T21:00:19.330Z,13
2023-05-18T21:05:19.361Z,13
2023-05-18T21:10:19.366Z,15
2023-05-18T21:15:19.299Z,11
2023-05-18T21:20:19.390Z,11
2023-05-18T21:25:19.324Z,13
2023-05-18T21:30:19.318Z,17
2023-05-18T21:35:19.313Z,11
2023-05-18T21:40:19.397Z,21
2023-05-18T21:45:16.363Z,20
2023-05-18T21:50:19.769Z,19
2023-05-18T21:55:19.382Z,17
2023-05-18T22:00:16.383Z,13
2023-05-18T22:05:16.381Z,17
2023-05-18T22:10:19.600Z,21
2023-05-18T22:15:19.356Z,15
2023-05-18T22:20:19.383Z,15
2023-05-18T22:25:19.307Z,18
2023-05-18T22:30:19.345Z,14
2023-05-18T22:35:19.337Z,14
2023-05-18T22:40:16.427Z,10
2023-05-18T22:45:19.346Z,11
2023-05-18T22:50:19.448Z,11
2023-05-18T22:55:19.342Z,17
2023-05-18T23:00:19.358Z,13
2023-05-18T23:05:16.426Z,17
2023-05-18T23:10:19.442Z,12
2023-05-18T23:15:19.468Z,12
2023-05-18T23:20:16.399Z,17
2023-05-18T23:25:19.401Z,16
2023-05-18T23:30:16.424Z,9
2023-05-18T23:35:19.407Z,11
2023-05-18T23:40:19.424Z,21
2023-05-18T23:45:16.410Z,14
2023-05-18T23:50:19.448Z,11
2023-05-18T23:55:19.421Z,14
